Time;durP1;ratioP1;P1;durP2;ratioP2;P2;SDS_P1;SDS_P2;PMS_P1;PMS_P2;Temp;Humidity;BMP_temperature;BMP_pressure;BME280_temperature;BME280_humidity;BME280_pressure;Samples;Min_cycle;Max_cycle;Signal;HPM_P1;HPM_P2
2024/01/18 00:01:26;;;;;;;;;;;18.50;54.30;;;;;;5071559;27;43007;-81
2024/01/18 00:03:52;;;;;;;;;;;18.50;54.80;;;;;;5082605;28;43668;-82
2024/01/18 00:06:17;;;;;;;;;;;18.50;54.80;;;;;;5084374;27;42815;-79
2024/01/18 00:08:43;;;;;;;;;;;18.50;54.80;;;;;;5080043;28;42940;-80
2024/01/18 00:11:08;;;;;;;;;;;18.50;54.80;;;;;;5073998;28;43013;-80
2024/01/18 00:13:34;;;;;;;;;;;18.50;54.30;;;;;;5079759;28;45317;-80
2024/01/18 00:16:00;;;;;;;;;;;18.50;54.30;;;;;;5072605;28;42975;-81
2024/01/18 00:18:25;;;;;;;;;;;18.40;54.20;;;;;;5063474;28;43004;-80
2024/01/18 00:20:51;;;;;;;;;;;18.50;54.90;;;;;;5068292;28;42910;-81
2024/01/18 00:23:16;;;;;;;;;;;18.80;55.00;;;;;;5081994;28;43349;-79
2024/01/18 00:25:42;;;;;;;;;;;18.50;55.10;;;;;;5085788;28;43060;-79
2024/01/18 00:28:07;;;;;;;;;;;18.50;54.80;;;;;;5068366;28;43459;-81
2024/01/18 00:30:33;;;;;;;;;;;18.40;54.20;;;;;;5076515;28;42836;-82
2024/01/18 00:32:58;;;;;;;;;;;18.50;54.80;;;;;;5068094;27;42992;-79
2024/01/18 00:35:24;;;;;;;;;;;18.50;54.70;;;;;;5075909;28;43297;-81
2024/01/18 00:37:50;;;;;;;;;;;18.50;54.70;;;;;;5069956;28;43399;-81
2024/01/18 00:40:15;;;;;;;;;;;18.50;54.70;;;;;;5074657;28;42973;-80
2024/01/18 00:42:41;;;;;;;;;;;18.50;54.20;;;;;;5076203;28;42992;-80
2024/01/18 00:45:06;;;;;;;;;;;18.50;54.70;;;;;;5066436;28;42972;-79
2024/01/18 00:47:33;;;;;;;;;;;18.50;54.60;;;;;;5082079;28;43463;-82
2024/01/18 00:49:58;;;;;;;;;;;18.50;54.70;;;;;;5082830;27;44264;-80
2024/01/18 00:52:24;;;;;;;;;;;18.50;54.70;;;;;;5078366;28;44132;-80
2024/01/18 00:54:49;;;;;;;;;;;18.50;54.70;;;;;;5071724;27;42966;-81
2024/01/18 00:57:15;;;;;;;;;;;18.50;54.70;;;;;;5075617;28;43055;-80
2024/01/18 00:59:40;;;;;;;;;;;18.50;54.70;;;;;;5071541;27;42918;-79
2024/01/18 01:02:06;;;;;;;;;;;18.50;54.70;;;;;;5079305;28;44159;-77
2024/01/18 01:04:31;;;;;;;;;;;18.50;54.70;;;;;;5084631;28;43039;-79
2024/01/18 01:06:57;;;;;;;;;;;18.40;54.70;;;;;;5073289;28;43024;-81
2024/01/18 01:09:24;;;;;;;;;;;18.40;54.10;;;;;;5083952;28;43132;-79
2024/01/18 01:11:51;;;;;;;;;;;18.50;54.70;;;;;;5079232;27;43560;-79
2024/01/18 01:14:17;;;;;;;;;;;18.40;54.60;;;;;;5078883;27;42951;-81
2024/01/18 01:16:43;;;;;;;;;;;18.50;54.70;;;;;;5076266;28;43583;-79
2024/01/18 01:19:08;;;;;;;;;;;18.40;54.60;;;;;;5078767;27;42981;-80
2024/01/18 01:21:34;;;;;;;;;;;18.40;54.60;;;;;;5069463;28;43981;-81
2024/01/18 01:23:59;;;;;;;;;;;18.50;54.60;;;;;;5077647;27;43090;-77
2024/01/18 01:26:25;;;;;;;;;;;18.40;54.60;;;;;;5066258;28;43851;-81
2024/01/18 01:28:50;;;;;;;;;;;18.40;54.60;;;;;;5073284;28;42846;-80
2024/01/18 01:31:16;;;;;;;;;;;18.40;54.60;;;;;;5073603;28;43634;-82
2024/01/18 01:33:42;;;;;;;;;;;18.40;54.50;;;;;;5075737;28;43023;-81
2024/01/18 01:36:07;;;;;;;;;;;18.50;54.60;;;;;;5076508;28;43628;-78
2024/01/18 01:38:33;;;;;;;;;;;18.40;54.80;;;;;;5065483;28;42946;-80
2024/01/18 01:40:59;;;;;;;;;;;18.40;54.50;;;;;;5069380;28;43167;-80
2024/01/18 01:43:24;;;;;;;;;;;18.40;54.60;;;;;;5074534;27;42980;-78
2024/01/18 01:45:50;;;;;;;;;;;18.40;54.60;;;;;;5065478;28;43364;-77
2024/01/18 01:48:15;;;;;;;;;;;18.40;54.50;;;;;;5078739;28;43050;-82
2024/01/18 01:50:41;;;;;;;;;;;18.40;54.90;;;;;;5084457;28;43971;-80
2024/01/18 01:53:10;;;;;;;;;;;18.40;54.50;;;;;;5073295;27;42834;-81
2024/01/18 01:55:37;;;;;;;;;;;18.40;54.50;;;;;;5066247;28;43753;-78
2024/01/18 01:58:02;;;;;;;;;;;18.40;54.50;;;;;;5076344;28;42928;-78
2024/01/18 02:00:28;;;;;;;;;;;18.40;54.60;;;;;;5073263;28;43562;-80
2024/01/18 02:02:54;;;;;;;;;;;18.40;54.50;;;;;;5076405;28;43039;-80
2024/01/18 02:05:20;;;;;;;;;;;18.40;54.50;;;;;;5083876;27;43015;-82
2024/01/18 02:07:46;;;;;;;;;;;18.40;54.50;;;;;;5065479;28;43119;-77
2024/01/18 02:10:12;;;;;;;;;;;18.40;54.50;;;;;;5079543;28;43903;-79
2024/01/18 02:12:37;;;;;;;;;;;18.40;54.50;;;;;;5076231;27;42879;-77
2024/01/18 02:15:04;;;;;;;;;;;18.40;54.50;;;;;;5065779;28;42958;-80
2024/01/18 02:17:29;;;;;;;;;;;18.40;54.50;;;;;;5082188;28;43240;-79
2024/01/18 02:19:55;;;;;;;;;;;18.40;54.00;;;;;;5085606;27;43586;-80
2024/01/18 02:22:22;;;;;;;;;;;18.40;54.50;;;;;;5085069;27;43002;-80
2024/01/18 02:24:50;;;;;;;;;;;18.40;54.50;;;;;;5082917;27;43693;-82
2024/01/18 02:27:15;;;;;;;;;;;18.30;54.50;;;;;;5086021;27;43130;-81
2024/01/18 02:29:41;;;;;;;;;;;18.40;54.50;;;;;;5085297;28;43443;-80
2024/01/18 02:32:06;;;;;;;;;;;18.30;54.60;;;;;;5085603;28;42955;-81
2024/01/18 02:34:38;;;;;;;;;;;18.40;54.50;;;;;;5085111;28;42921;-81
2024/01/18 02:37:05;;;;;;;;;;;18.40;54.50;;;;;;5084358;27;43101;-77
2024/01/18 02:39:30;;;;;;;;;;;18.40;54.40;;;;;;5085691;27;43112;-79
2024/01/18 02:41:56;;;;;;;;;;;18.40;54.50;;;;;;5085455;27;43015;-81
2024/01/18 02:44:23;;;;;;;;;;;18.40;54.50;;;;;;5083400;27;42978;-80
2024/01/18 02:46:49;;;;;;;;;;;18.40;54.50;;;;;;5085488;27;43059;-79
2024/01/18 02:49:14;;;;;;;;;;;18.40;54.50;;;;;;5085776;28;43712;-78
2024/01/18 02:51:40;;;;;;;;;;;18.40;54.50;;;;;;5085702;28;42869;-81
2024/01/18 02:54:05;;;;;;;;;;;18.30;54.40;;;;;;5083159;28;45811;-81
2024/01/18 02:56:31;;;;;;;;;;;18.40;54.50;;;;;;5084849;28;42958;-79
2024/01/18 02:58:56;;;;;;;;;;;18.40;54.50;;;;;;5085169;27;42904;-81
2024/01/18 03:01:22;;;;;;;;;;;18.30;54.40;;;;;;5085358;28;42878;-81
2024/01/18 03:03:47;;;;;;;;;;;18.40;54.40;;;;;;5084196;28;43439;-80
2024/01/18 03:06:13;;;;;;;;;;;18.40;54.40;;;;;;5084585;28;42995;-81
2024/01/18 03:08:38;;;;;;;;;;;18.40;54.40;;;;;;5084457;28;42990;-79
2024/01/18 03:11:04;;;;;;;;;;;18.40;54.40;;;;;;5084562;28;42998;-82
2024/01/18 03:13:30;;;;;;;;;;;18.30;53.90;;;;;;5082085;28;45304;-81
2024/01/18 03:15:56;;;;;;;;;;;18.40;54.40;;;;;;5085236;28;42995;-81
2024/01/18 03:18:21;;;;;;;;;;;18.30;53.90;;;;;;5085124;28;43162;-82
2024/01/18 03:20:47;;;;;;;;;;;18.30;54.40;;;;;;5085226;27;43044;-80
2024/01/18 03:23:12;;;;;;;;;;;18.30;54.40;;;;;;5088467;28;43009;-82
2024/01/18 03:25:38;;;;;;;;;;;18.30;54.40;;;;;;5089651;28;43114;-80
2024/01/18 03:28:04;;;;;;;;;;;18.30;54.40;;;;;;5084493;28;43559;-82
2024/01/18 03:30:29;;;;;;;;;;;18.30;54.40;;;;;;5084534;27;42912;-79
2024/01/18 03:32:55;;;;;;;;;;;18.30;54.40;;;;;;5084132;27;43038;-82
2024/01/18 03:35:20;;;;;;;;;;;18.30;53.90;;;;;;5073982;28;42864;-80
2024/01/18 03:37:46;;;;;;;;;;;18.30;54.50;;;;;;5077539;28;43682;-80
2024/01/18 03:40:12;;;;;;;;;;;18.30;54.50;;;;;;5075325;28;42910;-81
2024/01/18 03:42:41;;;;;;;;;;;18.30;54.40;;;;;;5084592;27;43034;-81
2024/01/18 03:45:06;;;;;;;;;;;18.30;54.30;;;;;;5084904;27;43194;-81
2024/01/18 03:47:32;;;;;;;;;;;18.30;54.30;;;;;;5082810;28;43657;-78
2024/01/18 03:49:59;;;;;;;;;;;18.30;53.90;;;;;;5084859;27;42943;-78
2024/01/18 03:52:24;;;;;;;;;;;18.30;54.30;;;;;;5083595;27;43553;-81
2024/01/18 03:54:50;;;;;;;;;;;18.30;54.30;;;;;;5084254;28;43064;-79
2024/01/18 03:57:15;;;;;;;;;;;18.30;54.30;;;;;;5084292;27;43662;-80
2024/01/18 03:59:43;;;;;;;;;;;18.30;54.40;;;;;;5084989;27;42952;-80
2024/01/18 04:02:09;;;;;;;;;;;18.30;54.40;;;;;;5084333;27;42916;-80
2024/01/18 04:04:34;;;;;;;;;;;18.30;54.40;;;;;;5083427;28;42898;-79
2024/01/18 04:07:00;;;;;;;;;;;18.30;54.50;;;;;;5083731;27;42949;-79
2024/01/18 04:09:25;;;;;;;;;;;18.30;54.40;;;;;;5084326;27;42942;-79
2024/01/18 04:11:51;;;;;;;;;;;18.30;54.40;;;;;;5084176;27;42949;-80
2024/01/18 04:14:16;;;;;;;;;;;18.30;54.90;;;;;;5084303;28;42944;-81
2024/01/18 04:16:43;;;;;;;;;;;18.30;54.30;;;;;;5083919;27;43015;-81
2024/01/18 04:19:09;;;;;;;;;;;18.30;54.30;;;;;;5083797;27;42970;-77
2024/01/18 04:21:34;;;;;;;;;;;18.30;54.40;;;;;;5079061;28;43998;-78
2024/01/18 04:24:00;;;;;;;;;;;18.30;54.40;;;;;;5079752;28;43016;-81
2024/01/18 04:26:27;;;;;;;;;;;18.30;54.30;;;;;;5083186;28;42950;-82
2024/01/18 04:28:53;;;;;;;;;;;18.30;54.30;;;;;;5084053;27;42978;-80
2024/01/18 04:31:18;;;;;;;;;;;18.30;54.40;;;;;;5084095;28;43053;-80
2024/01/18 04:33:44;;;;;;;;;;;18.30;54.30;;;;;;5083503;28;42842;-81
2024/01/18 04:36:09;;;;;;;;;;;18.30;55.10;;;;;;5083456;27;43463;-79
2024/01/18 04:38:35;;;;;;;;;;;18.30;54.40;;;;;;5080005;27;42903;-80
2024/01/18 04:41:00;;;;;;;;;;;18.20;53.80;;;;;;5083091;28;43918;-80
2024/01/18 04:43:26;;;;;;;;;;;18.30;54.40;;;;;;5083834;27;42901;-80
2024/01/18 04:45:51;;;;;;;;;;;18.30;54.30;;;;;;5083843;28;42991;-82
2024/01/18 04:48:17;;;;;;;;;;;18.30;54.30;;;;;;5083733;28;43483;-80
2024/01/18 04:50:43;;;;;;;;;;;18.30;54.30;;;;;;5083465;27;42885;-80
2024/01/18 04:53:08;;;;;;;;;;;18.30;54.30;;;;;;5083207;27;43041;-81
2024/01/18 04:55:33;;;;;;;;;;;18.20;54.30;;;;;;5083091;28;43041;-81
2024/01/18 04:57:59;;;;;;;;;;;18.20;54.20;;;;;;5083053;27;42933;-80
2024/01/18 05:00:25;;;;;;;;;;;18.30;54.40;;;;;;5083297;27;43074;-81
2024/01/18 05:02:50;;;;;;;;;;;18.30;53.80;;;;;;5083639;28;42926;-81
2024/01/18 05:05:16;;;;;;;;;;;18.30;54.50;;;;;;5077377;28;43512;-81
2024/01/18 05:07:41;;;;;;;;;;;18.20;53.80;;;;;;5079605;27;43086;-79
2024/01/18 05:10:08;;;;;;;;;;;18.30;54.80;;;;;;5081821;28;44523;-79
2024/01/18 05:12:35;;;;;;;;;;;18.20;54.70;;;;;;5086983;27;43568;-81
2024/01/18 05:15:00;;;;;;;;;;;18.20;54.20;;;;;;5086877;27;44486;-81
2024/01/18 05:17:35;;;;;;;;;;;18.20;54.20;;;;;;5082967;27;43540;-81
2024/01/18 05:20:03;;;;;;;;;;;18.20;54.20;;;;;;5084667;28;44243;-81
2024/01/18 05:22:32;;;;;;;;;;;18.20;54.20;;;;;;5078965;28;42985;-81
2024/01/18 05:24:59;;;;;;;;;;;18.20;54.20;;;;;;5086936;27;42915;-80
2024/01/18 05:27:25;;;;;;;;;;;18.20;54.20;;;;;;5084392;28;42950;-78
2024/01/18 05:29:51;;;;;;;;;;;18.20;54.20;;;;;;5083463;28;43600;-80
2024/01/18 05:32:19;;;;;;;;;;;18.20;54.20;;;;;;5086716;27;43057;-80
2024/01/18 05:34:44;;;;;;;;;;;18.20;54.20;;;;;;5085479;27;43987;-81
2024/01/18 05:37:10;;;;;;;;;;;18.20;54.30;;;;;;5086825;28;42953;-80
2024/01/18 05:39:35;;;;;;;;;;;18.20;54.30;;;;;;5086731;28;43602;-81
2024/01/18 05:42:02;;;;;;;;;;;18.20;54.20;;;;;;5086545;27;42892;-80
2024/01/18 05:44:28;;;;;;;;;;;18.20;54.20;;;;;;5091216;27;42982;-81
2024/01/18 05:46:54;;;;;;;;;;;18.20;54.20;;;;;;5090942;27;43016;-81
2024/01/18 05:49:19;;;;;;;;;;;18.20;54.20;;;;;;5084088;28;42958;-80
2024/01/18 05:51:45;;;;;;;;;;;18.20;54.20;;;;;;5083069;28;43473;-78
2024/01/18 05:54:10;;;;;;;;;;;18.20;54.20;;;;;;5084694;28;43851;-79
2024/01/18 05:56:35;;;;;;;;;;;18.20;54.20;;;;;;5086403;28;42948;-79
2024/01/18 05:59:01;;;;;;;;;;;18.20;54.20;;;;;;5081034;28;43063;-79
2024/01/18 06:01:26;;;;;;;;;;;18.20;54.20;;;;;;5081743;28;44133;-79
2024/01/18 06:03:52;;;;;;;;;;;18.20;54.20;;;;;;5077627;28;42931;-79
2024/01/18 06:06:17;;;;;;;;;;;18.10;53.70;;;;;;5078176;28;43087;-78
2024/01/18 06:08:43;;;;;;;;;;;18.20;54.20;;;;;;5086252;27;42806;-78
2024/01/18 06:11:08;;;;;;;;;;;18.20;54.20;;;;;;5084908;27;43001;-79
2024/01/18 06:13:34;;;;;;;;;;;18.20;54.20;;;;;;5080396;28;43467;-78
2024/01/18 06:16:00;;;;;;;;;;;18.20;54.20;;;;;;5077470;28;43038;-79
2024/01/18 06:18:25;;;;;;;;;;;18.20;54.20;;;;;;5084048;28;42934;-78
2024/01/18 06:20:51;;;;;;;;;;;18.20;54.20;;;;;;5084566;27;43242;-79
2024/01/18 06:23:16;;;;;;;;;;;18.20;54.20;;;;;;5084824;28;43042;-78
2024/01/18 06:25:42;;;;;;;;;;;18.20;54.10;;;;;;5084380;28;43070;-78
2024/01/18 06:28:07;;;;;;;;;;;18.20;54.20;;;;;;5081446;28;43257;-79
2024/01/18 06:30:33;;;;;;;;;;;18.20;54.20;;;;;;5084991;27;42959;-78
2024/01/18 06:32:58;;;;;;;;;;;18.10;53.60;;;;;;5077193;28;42928;-79
2024/01/18 06:35:24;;;;;;;;;;;18.20;52.10;;;;;;5079841;28;42988;-80
2024/01/18 06:37:49;;;;;;;;;;;18.00;48.90;;;;;;5085163;27;43458;-79
2024/01/18 06:40:17;;;;;;;;;;;17.80;47.90;;;;;;5082413;28;42945;-82
2024/01/18 06:42:43;;;;;;;;;;;17.60;48.20;;;;;;5084872;28;43661;-82
2024/01/18 06:45:09;;;;;;;;;;;17.40;47.50;;;;;;5085831;28;43109;-83
2024/01/18 06:47:35;;;;;;;;;;;17.20;49.20;;;;;;5084816;27;42948;-83
2024/01/18 06:50:00;;;;;;;;;;;17.10;48.20;;;;;;5085103;27;42860;-83
2024/01/18 06:52:26;;;;;;;;;;;16.90;47.90;;;;;;5084973;28;43947;-83
2024/01/18 06:54:51;;;;;;;;;;;16.80;47.90;;;;;;5084634;27;42909;-83
2024/01/18 06:57:17;;;;;;;;;;;16.70;49.20;;;;;;5075545;27;43405;-75
2024/01/18 06:59:46;;;;;;;;;;;16.60;49.50;;;;;;5066189;27;42914;-79
2024/01/18 07:02:12;;;;;;;;;;;16.60;48.50;;;;;;5065639;28;43693;-82
2024/01/18 07:04:37;;;;;;;;;;;16.60;48.00;;;;;;5065580;28;42927;-76
2024/01/18 07:07:03;;;;;;;;;;;16.50;48.50;;;;;;5071654;28;42827;-75
2024/01/18 07:09:29;;;;;;;;;;;16.50;49.20;;;;;;5070670;28;43506;-76
2024/01/18 07:11:54;;;;;;;;;;;16.50;49.60;;;;;;5072804;28;43375;-78
2024/01/18 07:14:21;;;;;;;;;;;16.60;50.20;;;;;;5076846;28;42935;-80
2024/01/18 07:16:47;;;;;;;;;;;16.70;50.80;;;;;;5064871;28;42925;-79
2024/01/18 07:19:12;;;;;;;;;;;16.80;50.80;;;;;;5069390;28;42958;-80
2024/01/18 07:21:38;;;;;;;;;;;17.00;50.80;;;;;;5085463;28;43868;-78
2024/01/18 07:24:03;;;;;;;;;;;17.10;50.70;;;;;;5085479;28;42885;-76
2024/01/18 07:26:29;;;;;;;;;;;17.20;50.80;;;;;;5084855;27;43703;-79
2024/01/18 07:28:54;;;;;;;;;;;17.30;50.80;;;;;;5084972;28;42951;-79
2024/01/18 07:31:20;;;;;;;;;;;17.40;50.90;;;;;;5083890;27;42950;-79
2024/01/18 07:33:45;;;;;;;;;;;17.40;50.90;;;;;;5083669;28;43015;-78
2024/01/18 07:36:11;;;;;;;;;;;16.80;50.80;;;;;;5084310;27;43488;-77
2024/01/18 07:38:36;;;;;;;;;;;17.50;51.20;;;;;;5085062;27;42850;-80
2024/01/18 07:41:02;;;;;;;;;;;17.60;51.30;;;;;;5085132;28;43182;-80
2024/01/18 07:43:27;;;;;;;;;;;17.60;51.50;;;;;;5085087;28;42763;-80
2024/01/18 07:45:53;;;;;;;;;;;17.60;51.40;;;;;;5084944;28;42799;-80
2024/01/18 07:48:18;;;;;;;;;;;17.70;51.50;;;;;;5084652;28;43050;-79
2024/01/18 07:50:44;;;;;;;;;;;17.70;51.60;;;;;;5085432;27;42972;-78
2024/01/18 07:53:11;;;;;;;;;;;17.80;51.60;;;;;;5072651;28;42926;-78
2024/01/18 07:55:36;;;;;;;;;;;17.80;51.70;;;;;;5064528;28;43797;-75
2024/01/18 07:58:02;;;;;;;;;;;17.90;51.40;;;;;;5065056;28;42837;-79
2024/01/18 08:00:28;;;;;;;;;;;17.80;50.90;;;;;;5065097;28;42860;-75
2024/01/18 08:02:53;;;;;;;;;;;17.90;50.90;;;;;;5068847;28;42988;-80
2024/01/18 08:05:19;;;;;;;;;;;17.90;51.60;;;;;;5090803;28;42895;-79
2024/01/18 08:07:44;;;;;;;;;;;17.90;51.30;;;;;;5089065;28;43038;-79
2024/01/18 08:10:10;;;;;;;;;;;17.90;51.80;;;;;;5084660;28;42970;-79
2024/01/18 08:12:36;;;;;;;;;;;17.90;51.90;;;;;;5080692;28;42931;-79
2024/01/18 08:15:02;;;;;;;;;;;18.00;52.00;;;;;;5083066;27;44241;-81
2024/01/18 08:17:28;;;;;;;;;;;18.00;52.00;;;;;;5079743;27;42977;-78
2024/01/18 08:19:54;;;;;;;;;;;18.00;52.10;;;;;;5082008;27;42942;-79
2024/01/18 08:22:20;;;;;;;;;;;18.00;52.50;;;;;;5086355;27;43006;-78
2024/01/18 08:24:47;;;;;;;;;;;18.00;52.30;;;;;;5083290;27;43660;-79
2024/01/18 08:27:13;;;;;;;;;;;18.10;52.30;;;;;;5083660;27;43087;-78
2024/01/18 08:29:38;;;;;;;;;;;18.10;52.40;;;;;;5085614;27;43347;-80
2024/01/18 08:32:04;;;;;;;;;;;18.10;52.40;;;;;;5083986;27;43058;-80
2024/01/18 08:34:30;;;;;;;;;;;18.10;52.40;;;;;;5083213;27;42901;-77
2024/01/18 08:36:55;;;;;;;;;;;18.10;52.40;;;;;;5084095;28;43024;-77
2024/01/18 08:39:21;;;;;;;;;;;18.10;52.40;;;;;;5083863;28;42952;-76
2024/01/18 08:41:46;;;;;;;;;;;18.10;52.40;;;;;;5084031;27;43011;-76
2024/01/18 08:44:12;;;;;;;;;;;18.10;52.50;;;;;;5085546;28;42971;-79
2024/01/18 08:46:40;;;;;;;;;;;18.10;52.60;;;;;;5087207;27;43190;-79
2024/01/18 08:49:07;;;;;;;;;;;18.10;52.60;;;;;;5084770;28;44377;-79
2024/01/18 08:51:33;;;;;;;;;;;18.20;52.70;;;;;;5087712;28;42932;-79
2024/01/18 08:53:59;;;;;;;;;;;18.20;52.70;;;;;;5083399;27;43742;-80
2024/01/18 08:56:24;;;;;;;;;;;18.10;52.70;;;;;;5086401;27;42936;-79
2024/01/18 08:58:50;;;;;;;;;;;18.20;52.90;;;;;;5088653;27;42939;-77
2024/01/18 09:01:16;;;;;;;;;;;18.20;52.90;;;;;;5108004;27;43258;-79
2024/01/18 09:03:41;;;;;;;;;;;18.20;53.00;;;;;;5106602;27;43214;-78
2024/01/18 09:06:07;;;;;;;;;;;18.20;53.00;;;;;;5107936;27;42952;-78
2024/01/18 09:08:34;;;;;;;;;;;18.20;53.00;;;;;;5108139;27;42785;-79
2024/01/18 09:10:59;;;;;;;;;;;18.20;53.10;;;;;;5108179;27;43038;-78
2024/01/18 09:13:25;;;;;;;;;;;18.20;53.10;;;;;;5108134;27;43458;-78
2024/01/18 09:15:51;;;;;;;;;;;18.20;53.20;;;;;;5108480;27;42764;-78
2024/01/18 09:18:16;;;;;;;;;;;18.20;53.20;;;;;;5108128;27;44263;-78
2024/01/18 09:20:45;;;;;;;;;;;18.20;53.40;;;;;;5108536;27;42764;-78
2024/01/18 09:23:11;;;;;;;;;;;18.20;53.50;;;;;;5108277;27;43820;-78
2024/01/18 09:25:37;;;;;;;;;;;18.20;53.50;;;;;;5108481;27;42775;-78
2024/01/18 09:28:03;;;;;;;;;;;18.20;53.50;;;;;;5108432;27;43683;-78
2024/01/18 09:30:29;;;;;;;;;;;18.20;53.70;;;;;;5108087;27;42788;-78
2024/01/18 09:32:54;;;;;;;;;;;18.20;53.60;;;;;;5108268;27;42764;-78
2024/01/18 09:35:20;;;;;;;;;;;18.20;53.30;;;;;;5107748;27;43108;-78
2024/01/18 09:37:47;;;;;;;;;;;18.20;53.80;;;;;;5107543;27;43498;-79
2024/01/18 09:40:12;;;;;;;;;;;18.20;53.90;;;;;;5105955;27;42988;-78
2024/01/18 09:42:42;;;;;;;;;;;18.20;53.90;;;;;;5107740;27;42883;-78
2024/01/18 09:45:09;;;;;;;;;;;18.20;54.00;;;;;;5108500;27;43106;-78
2024/01/18 09:47:34;;;;;;;;;;;18.20;54.00;;;;;;5107833;27;43312;-78
2024/01/18 09:50:00;;;;;;;;;;;18.20;54.00;;;;;;5108388;27;42865;-79
2024/01/18 09:52:25;;;;;;;;;;;18.20;54.10;;;;;;5106938;27;43712;-78
2024/01/18 09:54:51;;;;;;;;;;;18.20;54.10;;;;;;5107382;27;42877;-78
2024/01/18 09:57:21;;;;;;;;;;;18.20;54.10;;;;;;5107597;27;43812;-79
2024/01/18 09:59:48;;;;;;;;;;;18.20;54.10;;;;;;5107832;27;43028;-79
2024/01/18 10:02:14;;;;;;;;;;;18.20;54.20;;;;;;5108042;27;42867;-78
2024/01/18 10:04:40;;;;;;;;;;;18.20;54.30;;;;;;5107981;27;42947;-78
2024/01/18 10:07:08;;;;;;;;;;;18.20;54.40;;;;;;5107622;27;42935;-78
2024/01/18 10:09:33;;;;;;;;;;;18.20;54.40;;;;;;5108458;27;42928;-78
2024/01/18 10:11:59;;;;;;;;;;;18.20;54.40;;;;;;5107611;27;42821;-78
2024/01/18 10:14:39;;;;;;;;;;;18.20;54.40;;;;;;5107647;27;42996;-78
2024/01/18 10:17:04;;;;;;;;;;;18.20;54.40;;;;;;5107974;27;42857;-78
2024/01/18 10:19:29;;;;;;;;;;;18.30;54.60;;;;;;5107272;27;42849;-78
2024/01/18 10:21:56;;;;;;;;;;;18.30;54.60;;;;;;5107499;27;43453;-77
2024/01/18 10:24:22;;;;;;;;;;;18.20;54.60;;;;;;5107868;27;42935;-78
2024/01/18 10:26:47;;;;;;;;;;;18.20;54.60;;;;;;5114581;27;42788;-78
2024/01/18 10:29:13;;;;;;;;;;;18.20;54.70;;;;;;5112846;27;42912;-78
2024/01/18 10:31:42;;;;;;;;;;;18.20;54.70;;;;;;5108056;27;42922;-76
2024/01/18 10:34:08;;;;;;;;;;;18.20;54.80;;;;;;5107860;27;43156;-78
2024/01/18 10:36:34;;;;;;;;;;;18.20;54.80;;;;;;5107575;27;42785;-77
2024/01/18 10:39:14;;;;;;;;;;;18.30;55.10;;;;;;5105782;27;42856;-78
2024/01/18 10:41:40;;;;;;;;;;;18.20;55.00;;;;;;5107082;27;43576;-78
2024/01/18 10:44:05;;;;;;;;;;;18.20;55.10;;;;;;5106981;27;42939;-78
2024/01/18 10:46:31;;;;;;;;;;;18.20;55.10;;;;;;5106612;27;42890;-78
2024/01/18 10:48:56;;;;;;;;;;;18.30;55.20;;;;;;5107194;27;42872;-79
2024/01/18 10:51:23;;;;;;;;;;;18.30;55.70;;;;;;5107107;27;42962;-78
2024/01/18 10:53:50;;;;;;;;;;;18.30;55.30;;;;;;5106647;27;42781;-78
2024/01/18 10:56:15;;;;;;;;;;;18.30;55.40;;;;;;5106509;27;42873;-78
2024/01/18 10:58:41;;;;;;;;;;;18.30;55.40;;;;;;5106717;27;42982;-78
2024/01/18 11:01:07;;;;;;;;;;;18.30;55.50;;;;;;5104880;27;45312;-78
2024/01/18 11:03:35;;;;;;;;;;;18.30;55.60;;;;;;5106924;27;42870;-79
2024/01/18 11:06:04;;;;;;;;;;;18.30;55.60;;;;;;5097815;27;43067;-78
2024/01/18 11:08:32;;;;;;;;;;;18.20;55.60;;;;;;5074520;28;42850;-78
2024/01/18 11:10:58;;;;;;;;;;;18.30;55.80;;;;;;5065082;28;43274;-78
2024/01/18 11:13:23;;;;;;;;;;;18.30;55.40;;;;;;5064811;28;43028;-76
2024/01/18 11:15:52;;;;;;;;;;;18.20;55.80;;;;;;5071691;28;43604;-76
2024/01/18 11:18:18;;;;;;;;;;;18.30;55.50;;;;;;5085238;27;42916;-76
2024/01/18 11:20:59;;;;;;;;;;;18.30;55.70;;;;;;5082519;27;43850;-77
2024/01/18 11:23:25;;;;;;;;;;;18.20;55.70;;;;;;5082324;28;43319;-76
2024/01/18 11:25:51;;;;;;;;;;;18.30;55.80;;;;;;5083461;27;43042;-76
2024/01/18 11:28:23;;;;;;;;;;;18.20;55.80;;;;;;5085454;27;42941;-76
2024/01/18 11:30:49;;;;;;;;;;;18.20;55.90;;;;;;5085417;27;43185;-76
2024/01/18 11:33:14;;;;;;;;;;;18.30;56.00;;;;;;5082951;27;44339;-77
2024/01/18 11:35:43;;;;;;;;;;;18.30;56.00;;;;;;5087506;27;43034;-76
2024/01/18 11:38:15;;;;;;;;;;;18.30;56.20;;;;;;5085465;27;43055;-75
2024/01/18 11:40:41;;;;;;;;;;;18.30;56.20;;;;;;5085050;27;43766;-78
2024/01/18 11:43:06;;;;;;;;;;;18.30;56.20;;;;;;5083026;28;43004;-77
2024/01/18 11:45:32;;;;;;;;;;;18.30;55.70;;;;;;5084569;27;42991;-78
2024/01/18 11:47:57;;;;;;;;;;;18.30;56.60;;;;;;5085104;27;42941;-77
2024/01/18 11:50:23;;;;;;;;;;;18.30;56.60;;;;;;5084888;28;43947;-78
2024/01/18 11:52:48;;;;;;;;;;;18.30;56.70;;;;;;5083686;27;42979;-78
2024/01/18 11:55:16;;;;;;;;;;;18.30;56.70;;;;;;5085074;27;43663;-77
2024/01/18 11:57:42;;;;;;;;;;;18.30;56.70;;;;;;5085024;27;43059;-78
2024/01/18 12:00:07;;;;;;;;;;;18.30;56.70;;;;;;5084275;28;43586;-77
2024/01/18 12:02:33;;;;;;;;;;;18.40;56.90;;;;;;5083959;27;43006;-77
2024/01/18 12:04:58;;;;;;;;;;;18.40;57.00;;;;;;5096341;27;43458;-76
2024/01/18 12:07:25;;;;;;;;;;;18.30;57.00;;;;;;5087108;27;42831;-77
2024/01/18 12:09:50;;;;;;;;;;;18.40;57.10;;;;;;5084760;27;43118;-75
2024/01/18 12:12:16;;;;;;;;;;;18.40;57.20;;;;;;5082605;28;43039;-78
2024/01/18 12:14:43;;;;;;;;;;;18.40;57.20;;;;;;5084819;27;43009;-77
2024/01/18 12:17:09;;;;;;;;;;;18.40;57.20;;;;;;5084412;27;43068;-77
2024/01/18 12:19:37;;;;;;;;;;;18.40;57.30;;;;;;5086804;27;43800;-77
2024/01/18 12:22:12;;;;;;;;;;;18.40;57.30;;;;;;5088070;27;42996;-78
2024/01/18 12:24:39;;;;;;;;;;;18.40;57.20;;;;;;5088215;27;42909;-75
2024/01/18 12:27:05;;;;;;;;;;;18.40;57.50;;;;;;5088127;27;43089;-77
2024/01/18 12:29:31;;;;;;;;;;;18.40;57.50;;;;;;5087709;27;43899;-77
2024/01/18 12:31:57;;;;;;;;;;;18.40;57.30;;;;;;5085104;27;42877;-78
2024/01/18 12:34:22;;;;;;;;;;;18.40;57.60;;;;;;5089158;27;43649;-78
2024/01/18 12:36:48;;;;;;;;;;;18.40;57.60;;;;;;5087358;27;42886;-78
2024/01/18 12:39:14;;;;;;;;;;;18.40;57.80;;;;;;5087351;28;42938;-78
2024/01/18 12:41:40;;;;;;;;;;;18.40;57.50;;;;;;5085030;28;42955;-79
2024/01/18 12:44:09;;;;;;;;;;;18.40;57.90;;;;;;5088176;27;43109;-77
2024/01/18 12:46:35;;;;;;;;;;;18.40;57.90;;;;;;5088311;27;42908;-77
2024/01/18 12:49:04;;;;;;;;;;;18.40;57.70;;;;;;5092485;27;43514;-78
2024/01/18 12:51:31;;;;;;;;;;;18.40;57.70;;;;;;5089070;28;42846;-78
2024/01/18 12:53:57;;;;;;;;;;;18.40;57.70;;;;;;5087072;27;42936;-77
2024/01/18 12:56:23;;;;;;;;;;;18.40;57.60;;;;;;5087071;27;42851;-77
2024/01/18 12:58:48;;;;;;;;;;;18.40;57.60;;;;;;5087418;27;43005;-77
2024/01/18 13:01:26;;;;;;;;;;;18.40;57.70;;;;;;5087731;28;42874;-77
2024/01/18 13:03:52;;;;;;;;;;;18.40;57.70;;;;;;5085968;28;43744;-78
2024/01/18 13:06:17;;;;;;;;;;;18.40;57.40;;;;;;5087026;27;42997;-77
2024/01/18 13:08:43;;;;;;;;;;;18.40;57.80;;;;;;5086876;27;43031;-77
2024/01/18 13:11:09;;;;;;;;;;;18.40;57.70;;;;;;5082008;27;43008;-77
2024/01/18 13:13:34;;;;;;;;;;;18.40;57.90;;;;;;5082658;28;43039;-76
2024/01/18 13:16:04;;;;;;;;;;;18.40;57.90;;;;;;5087251;27;43010;-78
2024/01/18 13:18:29;;;;;;;;;;;18.40;57.30;;;;;;5087657;27;42798;-76
2024/01/18 13:20:55;;;;;;;;;;;18.40;58.30;;;;;;5086927;28;43746;-77
2024/01/18 13:23:20;;;;;;;;;;;18.40;57.70;;;;;;5086182;27;43790;-77
2024/01/18 13:25:46;;;;;;;;;;;18.40;58.00;;;;;;5084864;28;43200;-77
2024/01/18 13:28:12;;;;;;;;;;;18.40;57.40;;;;;;5083688;27;44596;-78
2024/01/18 13:30:37;;;;;;;;;;;18.40;57.30;;;;;;5084809;28;43246;-77
2024/01/18 13:33:03;;;;;;;;;;;18.40;58.00;;;;;;5086392;28;43712;-77
2024/01/18 13:35:31;;;;;;;;;;;18.40;57.90;;;;;;5086649;27;43065;-77
2024/01/18 13:37:56;;;;;;;;;;;18.30;57.40;;;;;;5085367;28;43947;-80
2024/01/18 13:40:23;;;;;;;;;;;21.10;59.30;;;;;;5085379;28;43003;-75
2024/01/18 13:42:49;;;;;;;;;;;18.50;58.10;;;;;;5084919;28;43805;-78
2024/01/18 13:45:15;;;;;;;;;;;18.50;57.50;;;;;;5085455;27;43095;-77
2024/01/18 13:47:41;;;;;;;;;;;18.50;57.90;;;;;;5085911;28;42954;-78
2024/01/18 13:50:07;;;;;;;;;;;18.40;57.60;;;;;;5085963;28;43055;-79
2024/01/18 13:52:32;;;;;;;;;;;18.30;57.70;;;;;;5086042;27;43228;-80
2024/01/18 13:54:58;;;;;;;;;;;18.40;58.40;;;;;;5082821;28;43051;-80
2024/01/18 13:57:25;;;;;;;;;;;18.40;57.70;;;;;;5086070;27;42881;-77
2024/01/18 13:59:50;;;;;;;;;;;18.50;58.70;;;;;;5086742;27;42897;-78
2024/01/18 14:02:19;;;;;;;;;;;18.50;58.90;;;;;;5083917;27;44907;-77
2024/01/18 14:04:45;;;;;;;;;;;18.40;58.80;;;;;;5082643;28;42995;-79
2024/01/18 14:07:10;;;;;;;;;;;18.60;59.60;;;;;;5085001;28;42929;-86
2024/01/18 14:09:36;;;;;;;;;;;18.60;59.60;;;;;;5072228;28;43195;-80